This is the latest recevied weather packets stored in our database for station/object DG8SBT-10. If no packets are shown the sender has not sent any weather packets the latest 1 day(s).
| Time | Temp. | Humidity | Pressure | Rain* | Wind** | Luminosity | Snow |
|---|---|---|---|---|---|---|---|
| 1778114814 | 20.56° C | 43% | 1012 hPa | - | - | - | - |
| 1778113914 | 21.11° C | 43% | 1012 hPa | - | - | - | - |
| 1778113014 | 21.11° C | 43% | 1012 hPa | - | - | - | - |
| 1778112114 | 21.11° C | 43% | 1012 hPa | - | - | - | - |
| 1778111214 | 21.11° C | 43% | 1012 hPa | - | - | - | - |
| 1778103113 | 21.11° C | 44% | 1011.5 hPa | - | - | - | - |
| 1778102213 | 21.67° C | 44% | 1011.3 hPa | - | - | - | - |
| 1778095012 | 22.22° C | 44% | 1010.4 hPa | - | - | - | - |
| 1778094112 | 22.22° C | 44% | 1010.1 hPa | - | - | - | - |
| 1778093212 | 22.22° C | 43% | 1009.9 hPa | - | - | - | - |
| 1778086011 | 22.78° C | 42% | 1009.1 hPa | - | - | - | - |
| 1778084211 | 22.78° C | 42% | 1009.1 hPa | - | - | - | - |
| 1778083311 | 22.78° C | 42% | 1009 hPa | - | - | - | - |
| 1778075210 | 24.44° C | 39% | 1007.6 hPa | - | - | - | - |
| 1778074310 | 24.44° C | 39% | 1007.4 hPa | - | - | - | - |
| 1778073410 | 24.44° C | 38% | 1007.3 hPa | - | - | - | - |
| 1778068009 | 24.44° C | 38% | 1007.6 hPa | - | - | - | - |
| 1778066209 | 24.44° C | 39% | 1007.6 hPa | - | - | - | - |
| 1778065309 | 24.44° C | 39% | 1007.8 hPa | - | - | - | - |
| 1778064409 | 24.44° C | 39% | 1008.1 hPa | - | - | - | - |
| 1778059908 | 23.33° C | 40% | 1008.4 hPa | - | - | - | - |
| 1778059008 | 23.33° C | 41% | 1008.4 hPa | - | - | - | - |
| 1778058108 | 23.33° C | 42% | 1008.4 hPa | - | - | - | - |
| 1778057208 | 22.78° C | 41% | 1008.5 hPa | - | - | - | - |
| 1778056308 | 22.78° C | 41% | 1008.4 hPa | - | - | - | - |
* Rain since midnight (hover to see other rain measurements)
** Current wind speed in m/s (hover to see current wind gust speed)